Time;durP1;ratioP1;P1;durP2;ratioP2;P2;SDS_P1;SDS_P2;PMS_P1;PMS_P2;Temp;Humidity;BMP_temperature;BMP_pressure;BME280_temperature;BME280_humidity;BME280_pressure;Samples;Min_cycle;Max_cycle;Signal;HPM_P1;HPM_P2
2022/07/17 00:00:43;;;;;;;16.15;3.47;;;;;;;21.04;53.75;100956.09;5017927;28;20026;-48
2022/07/17 00:03:14;;;;;;;18.50;3.78;;;;;;;21.02;52.96;100957.44;5014087;28;20022;-48
2022/07/17 00:05:42;;;;;;;12.57;3.75;;;;;;;20.94;52.80;100949.84;5028123;28;20032;-48
2022/07/17 00:08:09;;;;;;;15.02;3.45;;;;;;;20.92;53.18;100950.09;5018054;28;20026;-46
2022/07/17 00:10:38;;;;;;;13.52;3.30;;;;;;;20.87;52.73;100950.09;5024937;28;20080;-46
2022/07/17 00:13:05;;;;;;;13.40;3.50;;;;;;;20.77;53.00;100940.03;5019805;28;20464;-48
2022/07/17 00:15:31;;;;;;;16.58;3.10;;;;;;;20.93;52.49;100937.28;5014075;28;20057;-46
2022/07/17 00:17:59;;;;;;;13.50;3.28;;;;;;;21.13;52.22;100940.00;5013592;28;20069;-46
2022/07/17 00:20:26;;;;;;;17.70;4.15;;;;;;;21.09;51.87;100930.75;5014180;28;20110;-46
2022/07/17 00:22:54;;;;;;;16.90;3.95;;;;;;;20.89;51.83;100931.59;5013817;28;20032;-47
2022/07/17 00:25:22;;;;;;;9.48;3.17;;;;;;;20.83;52.08;100928.06;5013840;28;20057;-44
2022/07/17 00:27:48;;;;;;;12.43;3.42;;;;;;;20.62;52.25;100928.31;5005019;28;20030;-47
2022/07/17 00:30:14;;;;;;;17.35;4.07;;;;;;;20.70;52.90;100925.88;4994095;28;20096;-45
2022/07/17 00:32:42;;;;;;;15.40;4.55;;;;;;;20.80;52.77;100933.22;5010509;28;20053;-47
2022/07/17 00:35:09;;;;;;;16.95;4.07;;;;;;;20.84;52.59;100923.44;5004870;28;20022;-44
2022/07/17 00:37:43;;;;;;;12.93;4.30;;;;;;;20.93;52.53;100920.97;4999180;28;20028;-47
2022/07/17 00:40:12;;;;;;;19.73;4.60;;;;;;;21.07;51.36;100927.50;5005452;28;20065;-47
2022/07/17 00:42:42;;;;;;;19.67;4.03;;;;;;;21.08;51.36;100920.97;4994116;28;20252;-48
2022/07/17 00:45:10;;;;;;;9.85;3.70;;;;;;;21.13;51.44;100931.03;4993768;28;20113;-46
2022/07/17 00:48:09;;;;;;;16.83;4.18;;;;;;;20.95;52.07;100935.94;4999161;28;20029;-48
2022/07/17 00:50:41;;;;;;;14.82;3.97;;;;;;;20.93;51.55;100937.28;4989609;28;20045;-43
2022/07/17 00:53:08;;;;;;;10.50;3.78;;;;;;;21.00;51.92;100935.94;5012218;28;20038;-47
2022/07/17 00:55:34;;;;;;;14.27;3.65;;;;;;;20.94;51.52;100928.88;5013289;28;20053;-44
2022/07/17 00:58:03;;;;;;;16.98;3.88;;;;;;;20.83;52.39;100928.06;5011385;28;20030;-47
2022/07/17 01:00:30;;;;;;;17.60;4.45;;;;;;;20.75;52.55;100922.34;5001618;28;20032;-45
2022/07/17 01:02:56;;;;;;;15.32;4.15;;;;;;;20.73;52.75;100916.38;5009315;28;20029;-47
2022/07/17 01:05:23;;;;;;;17.92;5.10;;;;;;;20.55;52.40;100918.53;5011202;28;20030;-45
2022/07/17 01:07:51;;;;;;;18.85;4.28;;;;;;;20.60;52.49;100915.00;5012688;28;20033;-47
2022/07/17 01:10:18;;;;;;;10.27;3.22;;;;;;;20.57;53.22;100918.25;5010989;28;20492;-44
2022/07/17 01:12:48;;;;;;;16.73;4.05;;;;;;;20.54;53.24;100902.47;5009901;28;20092;-46
2022/07/17 01:15:15;;;;;;;13.93;3.92;;;;;;;20.49;52.52;100902.50;5012755;28;20073;-47
2022/07/17 01:17:42;;;;;;;14.30;4.00;;;;;;;20.23;54.12;100902.41;5008656;28;20376;-46
2022/07/17 01:20:10;;;;;;;10.85;3.78;;;;;;;20.31;53.88;100888.28;4993055;28;20373;-47
2022/07/17 01:22:45;;;;;;;13.15;3.92;;;;;;;20.45;54.33;100882.31;5009739;28;20026;-47
2022/07/17 01:25:12;;;;;;;19.92;4.18;;;;;;;20.36;53.42;100883.94;5008661;28;20113;-48
2022/07/17 01:27:39;;;;;;;18.70;5.25;;;;;;;20.17;54.06;100889.91;4997298;28;20068;-49
2022/07/17 01:30:06;;;;;;;11.95;4.07;;;;;;;20.06;54.38;100877.38;5007407;28;20038;-49
2022/07/17 01:32:40;;;;;;;13.45;4.15;;;;;;;19.78;55.93;100876.75;5012921;28;20549;-48
2022/07/17 01:35:08;;;;;;;15.27;4.93;;;;;;;19.68;56.33;100875.88;5012596;28;20403;-48
2022/07/17 01:37:36;;;;;;;12.35;4.10;;;;;;;19.82;56.14;100868.88;5012640;28;20025;-46
2022/07/17 01:40:02;;;;;;;20.88;5.00;;;;;;;19.92;56.42;100877.03;5012502;28;20029;-47
2022/07/17 01:42:29;;;;;;;17.95;4.28;;;;;;;19.77;56.13;100891.41;5013014;28;20030;-46
2022/07/17 01:44:56;;;;;;;20.92;5.00;;;;;;;19.58;56.95;100887.50;5012172;28;20032;-47
2022/07/17 01:47:23;;;;;;;21.45;5.10;;;;;;;19.38;57.42;100890.94;5012549;28;20084;-48
2022/07/17 01:49:52;;;;;;;17.20;4.63;;;;;;;19.41;57.52;100895.00;5012499;28;20117;-49
2022/07/17 01:52:18;;;;;;;20.50;5.60;;;;;;;19.35;58.04;100902.31;5012357;28;20390;-48
2022/07/17 01:54:45;;;;;;;16.63;5.28;;;;;;;19.28;58.19;100898.19;5012291;28;20069;-47
2022/07/17 01:57:12;;;;;;;24.20;5.60;;;;;;;19.33;58.10;100907.19;5012855;28;20164;-46
2022/07/17 01:59:39;;;;;;;21.35;5.32;;;;;;;19.28;58.08;100903.63;5012099;28;20030;-48
2022/07/17 02:02:06;;;;;;;20.17;4.97;;;;;;;19.24;58.23;100898.72;5012410;28;20026;-47
2022/07/17 02:04:34;;;;;;;17.15;4.75;;;;;;;19.20;57.73;100899.50;5009333;28;20022;-47
2022/07/17 02:07:00;;;;;;;17.40;5.30;;;;;;;19.37;57.65;100904.75;5005718;28;20034;-47
2022/07/17 02:09:27;;;;;;;18.10;5.15;;;;;;;19.68;56.57;100903.03;4992147;28;20117;-47
2022/07/17 02:11:54;;;;;;;14.68;4.88;;;;;;;19.77;56.32;100898.75;5021828;28;20052;-46
2022/07/17 02:14:21;;;;;;;20.90;5.03;;;;;;;20.06;55.29;100899.13;4997622;28;20093;-46
2022/07/17 02:16:48;;;;;;;17.63;4.93;;;;;;;20.30;55.10;100902.97;4990226;28;20034;-47
2022/07/17 02:19:14;;;;;;;16.90;4.85;;;;;;;20.48;54.20;100904.38;4992861;28;20030;-47
2022/07/17 02:21:41;;;;;;;16.17;4.57;;;;;;;20.63;53.63;100891.88;5000162;28;20052;-45
2022/07/17 02:24:07;;;;;;;17.25;5.28;;;;;;;21.04;52.92;100895.38;5011976;28;20030;-47
2022/07/17 02:26:34;;;;;;;13.88;4.43;;;;;;;21.30;51.95;100896.19;4994181;28;20031;-48
2022/07/17 02:29:00;;;;;;;16.08;4.60;;;;;;;21.58;51.50;100902.91;5025597;28;20501;-47
2022/07/17 02:31:27;;;;;;;16.95;4.55;;;;;;;21.53;50.83;100900.22;5031768;28;20104;-44
2022/07/17 02:33:53;;;;;;;13.90;4.50;;;;;;;21.55;50.90;100901.56;5031612;28;20555;-47
2022/07/17 02:36:19;;;;;;;19.15;5.10;;;;;;;21.64;50.83;100903.72;5032138;28;20532;-46
2022/07/17 02:38:48;;;;;;;17.38;4.75;;;;;;;21.60;50.87;100903.47;5000059;28;20124;-45
2022/07/17 02:41:15;;;;;;;16.30;4.70;;;;;;;21.41;50.89;100899.69;5015787;28;20036;-48
2022/07/17 02:43:42;;;;;;;19.77;5.80;;;;;;;21.57;50.88;100909.47;5018278;28;20041;-46
2022/07/17 02:46:09;;;;;;;17.73;5.03;;;;;;;21.43;50.78;100914.69;5016608;28;20037;-47
2022/07/17 02:48:35;;;;;;;16.08;5.32;;;;;;;21.22;51.38;100913.06;5013797;28;20132;-48
2022/07/17 02:51:01;;;;;;;21.05;5.50;;;;;;;20.75;52.60;100908.75;5001070;28;20161;-44
2022/07/17 02:53:28;;;;;;;26.30;6.15;;;;;;;20.56;53.25;100917.44;4995732;28;20482;-44
2022/07/17 02:55:54;;;;;;;19.13;6.32;;;;;;;20.48;53.63;100915.25;5008639;28;20025;-49
2022/07/17 02:58:21;;;;;;;16.23;5.63;;;;;;;20.30;54.51;100919.25;4994887;28;20031;-44
2022/07/17 03:00:47;;;;;;;15.35;5.75;;;;;;;20.00;55.40;100911.06;5003229;28;20129;-49
2022/07/17 03:03:13;;;;;;;18.50;6.63;;;;;;;19.71;56.46;100914.22;5009472;28;20117;-48
2022/07/17 03:05:39;;;;;;;22.13;7.00;;;;;;;19.18;57.89;100926.91;5003628;28;20030;-49
2022/07/17 03:08:05;;;;;;;21.23;6.57;;;;;;;18.89;59.21;100917.47;5000147;28;20041;-46
2022/07/17 03:10:32;;;;;;;19.13;6.57;;;;;;;18.55;60.08;100914.16;5000054;28;20049;-48
2022/07/17 03:12:58;;;;;;;24.77;7.25;;;;;;;18.36;60.20;100911.78;4999282;28;20150;-48
2022/07/17 03:15:24;;;;;;;23.67;7.35;;;;;;;18.01;61.76;100904.13;4995369;28;20080;-48
2022/07/17 03:17:51;;;;;;;21.88;7.25;;;;;;;17.45;63.69;100903.41;4995390;28;20026;-44
2022/07/17 03:20:17;;;;;;;24.88;7.88;;;;;;;17.47;63.57;100903.13;4995486;28;20076;-48
2022/07/17 03:22:43;;;;;;;24.42;7.10;;;;;;;17.15;64.92;100901.88;4995782;28;20077;-47
2022/07/17 03:25:10;;;;;;;24.70;7.65;;;;;;;16.95;65.42;100901.59;5003288;28;20046;-47
2022/07/17 03:27:38;;;;;;;27.58;7.70;;;;;;;16.85;66.03;100904.94;4998325;28;20030;-48
2022/07/17 03:30:05;;;;;;;29.42;7.32;;;;;;;16.83;66.08;100898.97;5013800;28;20076;-47
2022/07/17 03:32:31;;;;;;;20.48;6.15;;;;;;;16.55;67.00;100912.53;4998744;28;20523;-46
2022/07/17 03:34:57;;;;;;;23.70;7.25;;;;;;;16.48;67.40;100912.66;4994853;28;20569;-45
2022/07/17 03:37:24;;;;;;;25.73;8.07;;;;;;;16.43;67.46;100909.03;4995061;28;20031;-48
2022/07/17 03:39:50;;;;;;;28.98;7.65;;;;;;;16.15;68.68;100912.56;4994847;28;20117;-44
2022/07/17 03:42:16;;;;;;;28.98;7.63;;;;;;;16.04;68.93;100909.66;4995042;28;20436;-47
2022/07/17 03:44:42;;;;;;;30.90;7.85;;;;;;;15.92;69.37;100906.19;4997654;28;20018;-48
2022/07/17 03:47:09;;;;;;;26.65;8.02;;;;;;;15.95;69.16;100913.00;5017221;28;20026;-48
2022/07/17 03:49:35;;;;;;;32.08;8.32;;;;;;;15.86;69.80;100903.66;5012349;28;20033;-44
2022/07/17 03:52:02;;;;;;;24.73;7.93;;;;;;;15.81;69.93;100913.28;5014402;28;20364;-46
2022/07/17 03:54:28;;;;;;;24.33;7.68;;;;;;;15.76;70.04;100905.06;5014343;28;20049;-44
2022/07/17 03:56:54;;;;;;;20.02;7.57;;;;;;;15.67;70.42;100905.69;5014304;28;20029;-46
2022/07/17 03:59:20;;;;;;;22.05;7.57;;;;;;;15.70;71.13;100910.59;5014307;28;20490;-47
2022/07/17 04:01:47;;;;;;;24.63;8.55;;;;;;;15.64;71.10;100912.38;5021806;28;20025;-45
2022/07/17 04:04:14;;;;;;;25.42;7.78;;;;;;;15.47;71.54;100914.13;5013612;28;20033;-46
2022/07/17 04:06:40;;;;;;;30.55;7.53;;;;;;;15.42;71.62;100909.44;5013835;28;20112;-47
2022/07/17 04:09:06;;;;;;;26.45;7.38;;;;;;;15.42;71.67;100917.53;5014783;28;20030;-45
2022/07/17 04:11:32;;;;;;;26.80;7.78;;;;;;;15.31;72.02;100918.38;5031838;28;20033;-48
2022/07/17 04:13:58;;;;;;;26.67;7.93;;;;;;;15.22;72.53;100923.31;5014126;28;20038;-46
2022/07/17 04:16:25;;;;;;;23.98;7.82;;;;;;;15.21;72.32;100932.47;5013775;28;20064;-48
2022/07/17 04:18:51;;;;;;;24.77;7.63;;;;;;;15.20;72.39;100932.66;5028935;28;20029;-47
2022/07/17 04:21:17;;;;;;;33.35;7.95;;;;;;;15.21;72.67;100942.38;4997663;28;20113;-45
2022/07/17 04:23:43;;;;;;;28.23;8.60;;;;;;;15.20;72.58;100938.06;4994363;28;20034;-48
2022/07/17 04:26:10;;;;;;;31.02;8.30;;;;;;;15.16;72.52;100945.00;4994117;28;20026;-45
2022/07/17 04:28:37;;;;;;;25.60;7.93;;;;;;;15.13;72.29;100954.34;4994394;28;20046;-48
2022/07/17 04:31:03;;;;;;;27.50;8.10;;;;;;;15.02;72.78;100947.06;4994366;28;20026;-47
2022/07/17 04:33:30;;;;;;;23.10;7.88;;;;;;;15.01;73.18;100948.94;4993408;28;20034;-44
2022/07/17 04:35:56;;;;;;;29.83;8.15;;;;;;;14.92;73.33;100958.44;5001718;28;20030;-45
2022/07/17 04:38:22;;;;;;;28.42;8.40;;;;;;;14.95;73.42;100960.66;5013312;28;20437;-46
2022/07/17 04:40:48;;;;;;;30.42;8.32;;;;;;;14.99;73.24;100961.84;5001986;28;20092;-47
2022/07/17 04:43:14;;;;;;;30.73;7.63;;;;;;;14.90;73.67;100957.84;4994054;28;20030;-46
2022/07/17 04:45:41;;;;;;;28.92;7.82;;;;;;;14.94;73.29;100961.72;5005564;28;20033;-48
2022/07/17 04:48:07;;;;;;;24.90;7.85;;;;;;;14.91;73.61;100958.66;5013479;28;20482;-48
2022/07/17 04:50:33;;;;;;;30.35;7.95;;;;;;;14.99;73.15;100963.69;5013295;28;20116;-46
2022/07/17 04:53:00;;;;;;;25.02;8.73;;;;;;;14.98;73.27;100965.59;5002846;28;20525;-44
2022/07/17 04:55:27;;;;;;;22.55;7.50;;;;;;;14.96;73.25;100972.28;5013122;28;20036;-48
2022/07/17 04:57:54;;;;;;;27.40;8.07;;;;;;;14.98;73.43;100970.97;5013278;28;20026;-46
2022/07/17 05:00:20;;;;;;;28.38;8.43;;;;;;;15.10;72.77;100976.38;5012773;28;20030;-47
2022/07/17 05:02:46;;;;;;;32.42;7.50;;;;;;;15.03;72.73;100979.19;5013150;28;20450;-46
2022/07/17 05:05:13;;;;;;;31.48;7.65;;;;;;;15.07;72.79;100976.03;5012834;28;20040;-45
2022/07/17 05:07:39;;;;;;;28.98;7.95;;;;;;;14.95;73.30;100981.41;5012747;28;20022;-47
2022/07/17 05:10:08;;;;;;;23.60;7.38;;;;;;;14.99;73.16;100980.72;5013120;28;20063;-48
2022/07/17 05:12:35;;;;;;;33.90;7.45;;;;;;;14.90;73.43;100979.41;5012953;28;20030;-47
2022/07/17 05:15:01;;;;;;;23.00;7.60;;;;;;;15.02;73.21;100985.63;5012771;28;20022;-48
2022/07/17 05:17:27;;;;;;;23.67;7.72;;;;;;;15.03;73.25;100984.56;5016089;28;20129;-47
2022/07/17 05:19:54;;;;;;;28.95;7.90;;;;;;;14.98;73.57;100973.66;5013216;28;20034;-46
2022/07/17 05:22:20;;;;;;;34.67;7.43;;;;;;;15.04;73.43;100975.44;5011741;28;20057;-48
2022/07/17 05:24:46;;;;;;;24.90;7.72;;;;;;;14.98;73.51;100979.06;5011585;28;20108;-48
2022/07/17 05:27:12;;;;;;;25.23;7.80;;;;;;;15.04;73.54;100974.63;5012664;28;20076;-46
2022/07/17 05:29:38;;;;;;;24.80;7.18;;;;;;;15.08;73.21;100973.09;5010823;28;20243;-47
2022/07/17 05:32:05;;;;;;;23.20;7.18;;;;;;;15.08;73.41;100983.06;5012843;28;20022;-46
2022/07/17 05:34:31;;;;;;;28.15;7.60;;;;;;;15.07;73.68;100978.72;5010624;28;20468;-47
2022/07/17 05:36:57;;;;;;;32.85;8.25;;;;;;;15.15;73.15;100973.00;5012229;28;20087;-45
2022/07/17 05:39:23;;;;;;;29.02;8.07;;;;;;;14.92;74.27;100973.78;5012277;28;20030;-44
2022/07/17 05:41:50;;;;;;;31.05;8.27;;;;;;;14.86;74.43;100978.22;5010957;28;20040;-46
2022/07/17 05:44:16;;;;;;;30.33;8.43;;;;;;;14.93;74.25;100975.41;5012209;28;20470;-47
2022/07/17 05:46:42;;;;;;;27.75;7.93;;;;;;;14.92;74.10;100971.91;5012372;28;20025;-49
2022/07/17 05:49:09;;;;;;;28.65;7.20;;;;;;;14.84;74.42;100976.81;5012652;28;20034;-46
2022/07/17 05:51:35;;;;;;;25.63;7.82;;;;;;;14.83;74.48;100976.00;5010609;28;20450;-47
2022/07/17 05:54:01;;;;;;;31.73;7.80;;;;;;;14.66;75.38;100964.25;5012085;28;20127;-47
2022/07/17 05:56:27;;;;;;;26.67;8.48;;;;;;;14.64;75.37;100969.84;5009486;28;20402;-47
2022/07/17 05:58:54;;;;;;;24.35;8.00;;;;;;;14.75;74.81;100963.66;5012090;28;20053;-45
2022/07/17 06:01:20;;;;;;;37.97;9.60;;;;;;;14.71;74.89;100965.19;5008123;28;20490;-48
2022/07/17 06:03:46;;;;;;;29.25;8.48;;;;;;;14.60;75.30;100951.66;5007630;28;20037;-48
2022/07/17 06:06:12;;;;;;;31.67;8.13;;;;;;;14.51;75.62;100941.22;4992339;28;20101;-48
2022/07/17 06:08:38;;;;;;;27.45;7.07;;;;;;;14.51;75.49;100945.78;4992117;28;20030;-44
2022/07/17 06:11:05;;;;;;;34.03;7.90;;;;;;;14.52;75.34;100947.44;4991373;28;20029;-46
2022/07/17 06:13:31;;;;;;;35.95;8.65;;;;;;;14.37;75.66;100945.13;4992234;28;20026;-48
2022/07/17 06:15:58;;;;;;;35.42;8.85;;;;;;;14.49;75.44;100942.50;4992451;28;20057;-47
2022/07/17 06:18:26;;;;;;;36.50;8.23;;;;;;;14.29;76.30;100942.75;5006903;28;20455;-48
2022/07/17 06:20:52;;;;;;;31.05;8.48;;;;;;;14.40;75.68;100943.84;5011243;28;20497;-44
2022/07/17 06:23:18;;;;;;;28.92;8.73;;;;;;;14.32;75.86;100942.28;5008090;28;20455;-46
2022/07/17 06:25:45;;;;;;;30.90;7.70;;;;;;;14.33;75.82;100940.44;4994869;28;20030;-48
2022/07/17 06:28:11;;;;;;;26.13;7.25;;;;;;;14.24;76.01;100950.69;5012135;28;20037;-48
2022/07/17 06:30:37;;;;;;;30.38;7.95;;;;;;;14.22;76.04;100947.41;5012068;28;20061;-45
2022/07/17 06:33:04;;;;;;;29.88;8.98;;;;;;;14.18;76.09;100948.91;5012645;28;20054;-44
2022/07/17 06:35:34;;;;;;;35.47;8.30;;;;;;;14.15;76.06;100944.78;5009647;28;20390;-47
2022/07/17 06:38:02;;;;;;;24.95;7.70;;;;;;;14.15;76.03;100944.78;5008249;28;20056;-47
2022/07/17 06:40:28;;;;;;;32.28;7.57;;;;;;;14.10;76.26;100943.81;4991407;28;20015;-48
2022/07/17 06:42:55;;;;;;;43.97;9.30;;;;;;;14.03;76.54;100940.41;5008996;28;20108;-46
2022/07/17 06:45:21;;;;;;;24.25;7.88;;;;;;;14.04;76.25;100944.72;5005695;28;20080;-44
2022/07/17 06:47:47;;;;;;;30.40;8.15;;;;;;;14.05;76.77;100933.75;5011789;28;20028;-46
2022/07/17 06:50:13;;;;;;;38.58;8.23;;;;;;;14.00;77.05;100929.06;5008991;28;20096;-48
2022/07/17 06:52:39;;;;;;;31.23;7.80;;;;;;;14.06;76.61;100931.88;5011526;28;20053;-47
2022/07/17 06:55:06;;;;;;;34.72;8.48;;;;;;;13.99;76.81;100938.19;5005115;28;20026;-48
2022/07/17 06:57:32;;;;;;;32.00;7.75;;;;;;;14.04;76.71;100940.16;4994092;28;20027;-44
2022/07/17 06:59:58;;;;;;;34.15;7.75;;;;;;;13.97;76.75;100937.56;4995131;28;20030;-45
2022/07/17 07:02:25;;;;;;;33.70;8.55;;;;;;;13.98;76.83;100941.91;4999765;28;20031;-44
2022/07/17 07:04:51;;;;;;;35.05;7.93;;;;;;;13.97;76.74;100932.19;4992755;28;20030;-47
2022/07/17 07:07:17;;;;;;;28.65;8.23;;;;;;;13.91;77.14;100941.16;5009243;28;20060;-46
2022/07/17 07:09:43;;;;;;;35.33;9.07;;;;;;;13.89;77.37;100934.38;5011683;28;20030;-46
2022/07/17 07:12:09;;;;;;;33.17;8.57;;;;;;;13.88;77.27;100935.41;5010698;28;20081;-47
2022/07/17 07:14:36;;;;;;;30.33;7.78;;;;;;;13.87;77.10;100937.28;4996692;28;20452;-47
2022/07/17 07:17:02;;;;;;;36.33;8.13;;;;;;;13.98;76.93;100938.38;4991933;28;20049;-44
2022/07/17 07:19:28;;;;;;;26.75;8.15;;;;;;;13.92;77.27;100940.09;5008606;28;20061;-49
2022/07/17 07:21:54;;;;;;;27.58;7.90;;;;;;;13.82;77.64;100933.59;5010249;28;20026;-45
2022/07/17 07:24:20;;;;;;;28.15;8.23;;;;;;;13.94;77.16;100935.34;5014699;28;20513;-46
2022/07/17 07:26:47;;;;;;;31.10;7.65;;;;;;;13.89;77.13;100937.88;5013023;28;20145;-46
2022/07/17 07:29:13;;;;;;;36.38;8.48;;;;;;;13.93;77.32;100935.53;5014965;28;20390;-45
2022/07/17 07:31:39;;;;;;;35.10;7.97;;;;;;;13.83;77.44;100936.09;5001205;28;20030;-47
2022/07/17 07:34:05;;;;;;;32.45;8.48;;;;;;;13.85;77.37;100930.47;4994689;28;20108;-45
2022/07/17 07:36:31;;;;;;;32.22;8.93;;;;;;;13.86;77.49;100937.50;5004172;28;20030;-46
2022/07/17 07:38:58;;;;;;;31.95;8.40;;;;;;;13.87;77.83;100926.50;4995161;28;20037;-47
2022/07/17 07:41:24;;;;;;;30.27;8.00;;;;;;;13.87;77.73;100929.19;5010330;28;20033;-47
2022/07/17 07:43:50;;;;;;;35.15;7.80;;;;;;;13.89;77.31;100921.75;5014691;28;20041;-45
2022/07/17 07:46:16;;;;;;;33.53;11.02;;;;;;;13.87;77.59;100923.81;5012343;28;20052;-47
2022/07/17 07:48:43;;;;;;;33.10;8.35;;;;;;;13.90;77.40;100926.06;5007469;28;20226;-44
2022/07/17 07:51:10;;;;;;;30.58;8.18;;;;;;;13.93;77.30;100924.78;5007493;28;20492;-48
2022/07/17 07:53:36;;;;;;;29.67;8.18;;;;;;;13.90;77.19;100920.69;5013100;28;20044;-47
2022/07/17 07:56:03;;;;;;;31.98;7.38;;;;;;;13.87;77.32;100918.44;5014091;28;20493;-47
2022/07/17 07:58:29;;;;;;;24.17;7.65;;;;;;;13.88;77.09;100916.56;5011942;28;20479;-47
2022/07/17 08:00:55;;;;;;;34.03;7.78;;;;;;;13.88;77.16;100913.88;5014545;28;20037;-47
2022/07/17 08:03:22;;;;;;;26.08;7.50;;;;;;;13.95;76.83;100912.75;5012332;28;20030;-44
2022/07/17 08:05:48;;;;;;;29.17;8.10;;;;;;;13.81;77.33;100908.56;5011764;28;20542;-47
2022/07/17 08:08:14;;;;;;;32.58;7.47;;;;;;;13.86;76.98;100907.91;5013255;28;20101;-46
2022/07/17 08:10:40;;;;;;;35.92;8.23;;;;;;;13.79;77.21;100921.44;5013706;28;20025;-47
2022/07/17 08:13:06;;;;;;;34.38;8.20;;;;;;;13.60;78.01;100907.19;5010088;28;20080;-44
2022/07/17 08:15:33;;;;;;;30.85;8.13;;;;;;;13.62;78.25;100915.84;5013606;28;20101;-48
2022/07/17 08:17:59;;;;;;;38.15;9.00;;;;;;;13.70;77.63;100912.84;5012548;28;20037;-45
2022/07/17 08:20:26;;;;;;;29.75;8.68;;;;;;;13.73;77.53;100911.59;4996324;28;20033;-48
2022/07/17 08:22:52;;;;;;;32.85;8.48;;;;;;;13.58;78.29;100905.75;5012040;28;20498;-45
2022/07/17 08:25:18;;;;;;;36.30;8.52;;;;;;;13.56;78.38;100910.53;5005238;28;20038;-44
2022/07/17 08:27:45;;;;;;;32.78;7.18;;;;;;;13.58;78.31;100911.94;4994278;28;20030;-46
2022/07/17 08:30:13;;;;;;;31.25;9.85;;;;;;;13.51;78.43;100905.84;4999808;28;20042;-46
2022/07/17 08:32:40;;;;;;;27.15;7.65;;;;;;;13.50;78.42;100916.81;5013945;28;20034;-48
2022/07/17 08:35:06;;;;;;;40.88;9.73;;;;;;;13.45;78.46;100910.25;5011014;28;20033;-46
2022/07/17 08:37:43;;;;;;;28.10;8.45;;;;;;;13.42;78.09;100910.66;5013632;28;20085;-48
2022/07/17 08:40:25;;;;;;;30.73;8.98;;;;;;;13.40;78.69;100910.09;5011593;28;20065;-44
2022/07/17 08:42:53;;;;;;;38.95;9.52;;;;;;;13.25;78.73;100903.41;5028723;23;20138;-45
2022/07/17 08:45:19;;;;;;;35.97;9.23;;;;;;;13.24;78.85;100905.28;5015212;28;20032;-46
2022/07/17 08:47:46;;;;;;;46.78;8.52;;;;;;;13.13;79.29;100904.13;5015516;28;20021;-44
2022/07/17 08:50:13;;;;;;;42.13;8.80;;;;;;;13.38;78.41;100909.50;5023720;28;20025;-43
2022/07/17 08:52:41;;;;;;;32.85;8.73;;;;;;;13.42;78.38;100902.59;5027760;28;20101;-46
2022/07/17 08:55:16;;;;;;;33.50;8.02;;;;;;;13.25;78.98;100901.53;5032410;28;20029;-47
2022/07/17 08:57:44;;;;;;;35.00;8.88;;;;;;;13.34;78.59;100900.22;5032153;28;20022;-47
2022/07/17 09:00:12;;;;;;;33.42;8.57;;;;;;;13.30;78.46;100907.06;5031904;28;20037;-44
2022/07/17 09:02:40;;;;;;;42.75;9.75;;;;;;;13.37;78.19;100907.00;5030142;28;20083;-47
2022/07/17 09:05:07;;;;;;;35.47;8.48;;;;;;;13.30;78.24;100908.94;5031896;28;20035;-48
2022/07/17 09:07:34;;;;;;;45.20;8.95;;;;;;;13.25;78.75;100911.47;5031975;28;20025;-44
2022/07/17 09:10:00;;;;;;;29.08;8.23;;;;;;;13.23;79.02;100908.19;5031895;28;20053;-44
2022/07/17 09:12:28;;;;;;;43.47;10.10;;;;;;;13.24;78.82;100901.78;5031950;28;20132;-44
2022/07/17 09:14:54;;;;;;;29.52;9.05;;;;;;;13.18;79.24;100898.06;5024632;28;20710;-46
2022/07/17 09:17:20;;;;;;;36.33;8.80;;;;;;;13.06;79.74;100899.84;5017282;28;20041;-47
2022/07/17 09:19:47;;;;;;;33.42;9.45;;;;;;;13.23;79.29;100903.66;5012122;28;20025;-44
2022/07/17 09:22:16;;;;;;;34.28;8.95;;;;;;;13.24;79.15;100902.59;5015026;28;20057;-45
2022/07/17 09:24:43;;;;;;;33.10;8.10;;;;;;;13.18;79.67;100898.91;5012147;28;20092;-45
2022/07/17 09:27:11;;;;;;;33.63;9.05;;;;;;;13.18;79.35;100901.59;5030965;28;20036;-45
2022/07/17 09:29:58;;;;;;;43.03;9.50;;;;;;;13.17;79.66;100894.56;5034109;28;20488;-44
2022/07/17 09:32:30;;;;;;;41.50;9.00;;;;;;;13.09;80.09;100902.09;5030062;28;20088;-47
2022/07/17 09:34:59;;;;;;;36.28;8.10;;;;;;;13.13;80.29;100900.59;5013380;28;20029;-48
2022/07/17 09:37:27;;;;;;;34.85;9.23;;;;;;;13.17;80.13;100897.25;5030157;28;20028;-46
2022/07/17 09:39:56;;;;;;;38.80;9.20;;;;;;;13.21;79.82;100903.03;5031570;28;20025;-46
2022/07/17 09:42:31;;;;;;;32.10;8.63;;;;;;;13.19;79.65;100903.22;4940115;28;2528221;-46
2022/07/17 09:45:01;;;;;;;44.33;9.82;;;;;;;13.16;79.94;100892.13;5031806;28;20045;-47
2022/07/17 09:47:29;;;;;;;36.33;8.55;;;;;;;13.16;79.99;100898.31;5027766;28;20116;-47
2022/07/17 09:49:57;;;;;;;32.05;9.40;;;;;;;13.07;80.19;100890.75;5024708;28;20030;-48
2022/07/17 09:52:26;;;;;;;27.85;7.72;;;;;;;13.14;79.97;100897.69;5012604;28;20026;-47
2022/07/17 09:54:54;;;;;;;34.28;8.00;;;;;;;13.09;80.46;100897.53;5020893;28;20104;-44
2022/07/17 09:57:32;;;;;;;30.23;8.63;;;;;;;13.03;80.46;100892.22;5031940;28;20029;-47
2022/07/17 10:00:06;;;;;;;40.60;8.98;;;;;;;13.04;80.43;100899.22;5031194;28;20026;-47
2022/07/17 10:02:34;;;;;;;38.00;8.85;;;;;;;13.10;80.42;100903.72;5031482;28;20393;-47
2022/07/17 10:05:00;;;;;;;34.85;9.32;;;;;;;13.11;80.04;100902.69;5030956;28;20017;-46
2022/07/17 10:07:28;;;;;;;31.45;8.93;;;;;;;13.09;80.09;100907.47;5032089;28;20552;-47
2022/07/17 10:09:54;;;;;;;41.17;9.30;;;;;;;13.07;80.09;100904.19;5030946;28;20034;-47
2022/07/17 10:12:21;;;;;;;33.83;8.25;;;;;;;13.15;79.56;100906.56;5031794;28;20025;-44
2022/07/17 10:14:49;;;;;;;35.05;9.05;;;;;;;13.07;79.85;100906.88;5030873;28;20021;-47
2022/07/17 10:17:23;;;;;;;35.75;8.70;;;;;;;13.11;79.75;100902.69;5032144;28;20038;-45
2022/07/17 10:19:53;;;;;;;28.80;9.37;;;;;;;13.06;79.84;100903.34;5030901;28;20025;-47
2022/07/17 10:22:20;;;;;;;39.65;8.15;;;;;;;13.16;79.60;100900.19;5030814;28;20029;-45
2022/07/17 10:24:49;;;;;;;37.65;8.60;;;;;;;13.09;79.49;100900.22;5030964;28;20021;-43
2022/07/17 10:27:24;;;;;;;35.05;9.10;;;;;;;13.04;79.61;100897.38;5031563;28;20025;-44
2022/07/17 10:30:22;;;;;;;36.20;8.63;;;;;;;13.07;79.38;100896.13;5025539;28;20351;-47
2022/07/17 10:32:58;;;;;;;34.45;8.82;;;;;;;13.08;79.43;100898.56;4993019;28;20046;-44
2022/07/17 10:35:26;;;;;;;35.53;9.05;;;;;;;13.02;79.32;100899.47;4994243;28;20037;-48
2022/07/17 10:37:52;;;;;;;38.13;9.40;;;;;;;12.98;79.61;100898.25;5015494;28;20459;-45
2022/07/17 10:40:18;;;;;;;39.50;9.18;;;;;;;13.00;79.59;100898.06;5029966;28;20532;-47
2022/07/17 10:43:02;;;;;;;36.25;9.05;;;;;;;13.00;79.77;100900.75;5030180;28;20123;-47
2022/07/17 10:45:45;;;;;;;33.30;9.77;;;;;;;12.87;80.38;100890.91;5011862;28;20022;-46
2022/07/17 10:48:19;;;;;;;40.95;9.60;;;;;;;12.92;80.03;100894.56;5017642;28;20108;-44
2022/07/17 10:50:50;;;;;;;35.67;8.85;;;;;;;13.00;79.92;100901.56;5031521;28;20022;-44
2022/07/17 10:53:17;;;;;;;41.67;9.63;;;;;;;13.03;79.27;100895.72;5030305;28;20386;-46
2022/07/17 10:55:49;;;;;;;39.28;9.32;;;;;;;13.06;79.50;100897.97;5027687;28;20060;-44
2022/07/17 10:58:21;;;;;;;42.53;9.60;;;;;;;13.00;79.70;100903.44;5019225;28;20025;-46
2022/07/17 11:01:15;;;;;;;40.22;8.80;;;;;;;13.03;79.87;100900.28;5035362;28;20029;-45
2022/07/17 11:03:41;;;;;;;35.28;8.52;;;;;;;12.95;79.98;100899.53;5033770;28;20049;-44
2022/07/17 11:06:18;;;;;;;41.33;9.07;;;;;;;13.00;79.93;100906.13;5035176;28;20091;-43
2022/07/17 11:08:48;;;;;;;37.05;8.40;;;;;;;12.92;80.26;100909.88;5033906;28;20490;-45
2022/07/17 11:11:18;;;;;;;30.45;8.57;;;;;;;12.85;80.61;100909.13;5034923;28;20060;-44
2022/07/17 11:13:45;;;;;;;35.85;8.95;;;;;;;12.85;80.66;100904.56;5033911;28;20057;-46
2022/07/17 11:16:11;;;;;;;42.53;9.52;;;;;;;12.85;80.74;100899.19;5034931;28;20179;-44
2022/07/17 11:18:37;;;;;;;37.35;9.85;;;;;;;12.78;80.82;100898.44;5033590;28;20021;-44